Gene Machine — WDF7123 — position and weather

sailwx.info

Track history (hours):
 
Tides and Currents Weather Stations Pressure Air Temp Water Temp Dewpoint Dewpoint Depression Visibility Wind Speed Wind Dir Waves Ship Positions

Gene Machine

Owner: Gene Machine, Fort Lauderdale, FL. More information available from US FCC via Universal Licensing System and Coast Guard Vessel Documentation Center.

Last reported at 2016-Sep-02 15:33 UTC. Time now 2016-Dec-05 18:38 UTC.
Position N 26°07' W 080°08'.
Warning: this ship's position is months out of date.

Date/timePositionNaut miles runAvg speedWind from/ knotsBaromVisibWave heightAir tempDewpointWater temp
2016-Sep-02 15:33N 26°07' W 080°08'0 0.0
2016-Sep-02 14:33N 26°07' W 080°08'0 0.0
2016-Sep-02 13:33N 26°07' W 080°08'0 0.0
2016-Sep-02 12:33N 26°07' W 080°08'0 0.0
2016-Sep-02 11:24N 26°07' W 080°08'0 0.0
2016-Sep-02 10:24N 26°07' W 080°08'0 0.0
2016-Sep-02 09:27N 26°07' W 080°08'0 0.0
2016-Sep-02 08:27N 26°07' W 080°08'0 0.0
2016-Sep-02 07:27N 26°07' W 080°08'0 0.0
2016-Sep-02 06:30N 26°07' W 080°08'0 0.0
2016-Sep-02 05:30N 26°07' W 080°08'0 0.0
2016-Sep-02 04:30N 26°07' W 080°08'0 0.0
2016-Sep-02 03:33N 26°07' W 080°08'0 0.0
2016-Sep-02 02:33N 26°07' W 080°08'0 0.0
2016-Sep-02 01:33N 26°07' W 080°08'0 0.0
2016-Sep-02 00:33N 26°07' W 080°08'0 0.0
2016-Sep-01 23:33N 26°07' W 080°08'0 0.0
2016-Sep-01 22:33N 26°07' W 080°08'0 0.0
2016-Sep-01 21:33N 26°07' W 080°08'0 0.0
2016-Sep-01 20:24N 26°07' W 080°08'0 0.0
2016-Sep-01 19:27N 26°07' W 080°08'0 0.0
2016-Sep-01 18:27N 26°07' W 080°08'0 0.0
2016-Sep-01 17:27N 26°07' W 080°08'0 0.0
2016-Sep-01 16:27N 26°07' W 080°08'0 0.0
2016-Sep-01 15:30N 26°07' W 080°08'0 0.0
2016-Sep-01 14:30N 26°07' W 080°08'1 0.6
2016-Sep-01 13:33N 26°07' W 080°08'1 1.1
2016-Sep-01 12:28N 26°07' W 080°06'0 0.0
2016-Sep-01 11:31N 26°07' W 080°06'0 0.0
2016-Sep-01 10:31N 26°07' W 080°06'0 0.0
2016-Sep-01 09:28N 26°07' W 080°06'0 0.0
2016-Sep-01 08:19N 26°07' W 080°06'0 0.0
2016-Sep-01 07:31N 26°07' W 080°06'0 0.0
2016-Sep-01 06:31N 26°07' W 080°06'0 0.0
2016-Sep-01 05:31N 26°07' W 080°06'0 0.0
2016-Sep-01 04:22N 26°07' W 080°06'0 0.0
2016-Sep-01 03:25N 26°07' W 080°06'0 0.0
2016-Sep-01 02:25N 26°07' W 080°06'0 0.0
2016-Sep-01 01:25N 26°07' W 080°06'0 0.0
2016-Sep-01 00:28N 26°07' W 080°06'0 0.0
2016-Aug-31 23:28N 26°07' W 080°06'0 0.0
2016-Aug-31 22:28N 26°07' W 080°06'0 0.0
2016-Aug-31 21:31N 26°07' W 080°06'0 0.0
2016-Aug-31 20:31N 26°07' W 080°06'0 0.0
2016-Aug-31 19:31N 26°07' W 080°06'0 0.0
2016-Aug-31 18:31N 26°07' W 080°06'0 0.0
2016-Aug-31 17:31N 26°07' W 080°06'0 0.0
2016-Aug-31 16:31N 26°07' W 080°06'7 6.8
2016-Aug-31 15:33N 26°04' W 080°00'7 6.0
2016-Aug-31 14:29N 26°07' W 080°06'0 0.0
2016-Aug-31 13:29N 26°07' W 080°06'0 0.0
2016-Aug-31 12:32N 26°07' W 080°06'0 0.0
2016-Aug-31 11:32N 26°07' W 080°06'0 0.0
2016-Aug-31 10:32N 26°07' W 080°06'0 0.0
2016-Aug-31 09:32N 26°07' W 080°06'0 0.0
2016-Aug-31 08:32N 26°07' W 080°06'0 0.0
2016-Aug-31 07:32N 26°07' W 080°06'0 0.0
2016-Aug-31 06:23N 26°07' W 080°06'0 0.0
2016-Aug-31 05:23N 26°07' W 080°06'0 0.0
2016-Aug-31 04:26N 26°07' W 080°06'0 0.0
2016-Aug-31 03:26N 26°07' W 080°06'0 0.0
2016-Aug-31 02:26N 26°07' W 080°06'0 0.0
2016-Aug-31 01:29N 26°07' W 080°06'0 0.0
2016-Aug-31 00:29N 26°07' W 080°06'0 0.0
2016-Aug-30 23:29N 26°07' W 080°06'0 0.0
2016-Aug-30 22:32N 26°07' W 080°06'0 0.0
2016-Aug-30 21:32N 26°07' W 080°06'0 0.0
2016-Aug-30 20:32N 26°07' W 080°06'0 0.0
2016-Aug-30 19:29N 26°07' W 080°06'0 0.0
2016-Aug-30 18:32N 26°07' W 080°06'0 0.0
2016-Aug-30 17:20N 26°07' W 080°06'0 0.0
2016-Aug-30 16:32N 26°07' W 080°06'0 0.0
2016-Aug-30 15:23N 26°07' W 080°06'0 0.0
2016-Aug-30 14:23N 26°07' W 080°06'0 0.0
2016-Aug-30 13:26N 26°07' W 080°06'0 0.0
2016-Aug-30 12:26N 26°07' W 080°06'0 0.6
2016-Aug-30 11:33N 26°07' W 080°07'3 2.9
2016-Aug-30 10:33N 26°06' W 080°10'0 0.0
2016-Aug-30 09:33N 26°06' W 080°10'0 0.0
2016-Aug-30 08:33N 26°06' W 080°10'0 0.0
2016-Aug-30 07:33N 26°06' W 080°10'0 0.0
2016-Aug-30 06:33N 26°06' W 080°10'0 0.0
2016-Aug-30 05:33N 26°06' W 080°10'0 0.0
2016-Aug-30 04:33N 26°06' W 080°10'0 0.0
2016-Aug-30 03:21N 26°06' W 080°10'0 0.0
2016-Aug-30 02:27N 26°06' W 080°10'0 0.0
2016-Aug-30 01:27N 26°06' W 080°10'0 0.0
2016-Aug-30 00:27N 26°06' W 080°10'0 0.0
2016-Aug-29 23:30N 26°06' W 080°10'0 0.0
2016-Aug-29 22:30N 26°06' W 080°10'0 0.0
2016-Aug-29 21:30N 26°06' W 080°10'0 0.0
2016-Aug-29 20:33N 26°06' W 080°10'0 0.0
2016-Aug-29 19:33N 26°06' W 080°10'0 0.0
2016-Aug-29 18:33N 26°06' W 080°10'0 0.0
2016-Aug-29 17:33N 26°06' W 080°10'0 0.0
2016-Aug-29 16:33N 26°06' W 080°10'0 0.0
2016-Aug-29 15:33N 26°06' W 080°10'0 0.0
2016-Aug-29 14:33N 26°06' W 080°10'0 0.0
2016-Aug-29 13:24N 26°06' W 080°10'0 0.0
2016-Aug-29 12:27N 26°06' W 080°10'0 0.0
2016-Aug-29 11:27N 26°06' W 080°10'0 0.0
2016-Aug-29 10:27N 26°06' W 080°10'0 0.0
2016-Aug-29 09:30N 26°06' W 080°10'0 0.0
2016-Aug-29 08:30N 26°06' W 080°10'0 0.0
2016-Aug-29 07:30N 26°06' W 080°10'0 0.0
2016-Aug-29 06:33N 26°06' W 080°10'0 0.0
2016-Aug-29 05:33N 26°06' W 080°10'0 0.0
2016-Aug-29 04:33N 26°06' W 080°10'0 0.0
2016-Aug-29 03:33N 26°06' W 080°10'0 0.0
2016-Aug-29 02:33N 26°06' W 080°10'0 0.0
2016-Aug-29 01:33N 26°06' W 080°10'0 0.0
2016-Aug-29 00:33N 26°06' W 080°10'0 0.0
2016-Aug-28 23:24N 26°06' W 080°10'0 0.0
2016-Aug-28 22:24N 26°06' W 080°10'0 0.0
2016-Aug-28 21:27N 26°06' W 080°10'0 0.0
2016-Aug-28 20:27N 26°06' W 080°10'0 0.0
2016-Aug-28 19:27N 26°06' W 080°10'0 0.0
2016-Aug-28 18:30N 26°06' W 080°10'0 0.0
2016-Aug-28 17:30N 26°06' W 080°10'0 0.0
2016-Aug-28 16:33N 26°06' W 080°10'0 0.0
2016-Aug-28 15:33N 26°06' W 080°10'0 0.0
2016-Aug-28 14:33N 26°06' W 080°10'0 0.0
2016-Aug-28 13:33N 26°06' W 080°10'0 0.0
2016-Aug-28 12:33N 26°06' W 080°10'0 0.0
2016-Aug-28 11:33N 26°06' W 080°10'0 0.0
2016-Aug-28 10:33N 26°06' W 080°10'0 0.0
2016-Aug-28 09:33N 26°06' W 080°10'0 0.0
2016-Aug-28 08:24N 26°06' W 080°10'0 0.0
2016-Aug-28 07:27N 26°06' W 080°10'0 0.0
2016-Aug-28 06:27N 26°06' W 080°10'0 0.0
2016-Aug-28 05:27N 26°06' W 080°10'0 0.0
2016-Aug-28 04:30N 26°06' W 080°10'0 0.0
2016-Aug-28 03:30N 26°06' W 080°10'0 0.0
2016-Aug-28 02:30N 26°06' W 080°10'0 0.0
2016-Aug-28 01:33N 26°06' W 080°10'0 0.0
2016-Aug-28 00:33N 26°06' W 080°10'0 0.0
2016-Aug-27 23:33N 26°06' W 080°10'0 0.0
2016-Aug-27 22:33N 26°06' W 080°10'0 0.0
2016-Aug-27 21:33N 26°06' W 080°10'0 0.0
2016-Aug-27 20:33N 26°06' W 080°10'0 0.0
2016-Aug-27 19:24N 26°06' W 080°10'0 0.0
2016-Aug-27 18:21N 26°06' W 080°10'0 0.0
2016-Aug-27 17:27N 26°06' W 080°10'0 0.0
2016-Aug-27 16:27N 26°06' W 080°10'0 0.0
2016-Aug-27 15:27N 26°06' W 080°10'0 0.0
2016-Aug-27 14:30N 26°06' W 080°10'0 0.0
2016-Aug-27 13:30N 26°06' W 080°10'0 0.0
2016-Aug-27 12:30N 26°06' W 080°10'0 0.0
2016-Aug-27 11:33N 26°06' W 080°10'0 0.0
2016-Aug-27 10:33N 26°06' W 080°10'0 0.0
2016-Aug-27 09:33N 26°06' W 080°10'0 0.0
2016-Aug-27 08:33N 26°06' W 080°10'0 0.0
2016-Aug-27 07:33N 26°06' W 080°10'0 0.0
2016-Aug-27 06:18N 26°06' W 080°10'0 0.0
2016-Aug-27 04:24N 26°06' W 080°10'0 0.0
2016-Aug-27 03:24N 26°06' W 080°10'0 0.0
2016-Aug-27 02:27N 26°06' W 080°10'0 0.0
2016-Aug-27 01:27N 26°06' W 080°10'0 0.0
2016-Aug-27 00:30N 26°06' W 080°10'0 0.0
2016-Aug-26 23:30N 26°06' W 080°10'0 0.0
2016-Aug-26 22:30N 26°06' W 080°10'0 0.0
2016-Aug-26 21:33N 26°06' W 080°10'0 0.0
2016-Aug-26 20:33N 26°06' W 080°10'0 0.0
2016-Aug-26 19:33N 26°06' W 080°10'0 0.0
2016-Aug-26 18:33N 26°06' W 080°10'0 0.0
2016-Aug-26 17:33N 26°06' W 080°10'0 0.0
2016-Aug-26 16:33N 26°06' W 080°10'0 0.0
2016-Aug-26 15:33N 26°06' W 080°10'0 0.0
2016-Aug-26 14:24N 26°06' W 080°10'0 0.0
2016-Aug-26 13:24N 26°06' W 080°10'0 0.0
2016-Aug-26 12:27N 26°06' W 080°10'0 0.0
2016-Aug-26 11:27N 26°06' W 080°10'0 0.0
2016-Aug-26 10:27N 26°06' W 080°10'0 0.0
2016-Aug-26 09:30N 26°06' W 080°10'0 0.0
2016-Aug-26 08:30N 26°06' W 080°10'0 0.0
2016-Aug-26 07:30N 26°06' W 080°10'0 0.0
2016-Aug-26 06:33N 26°06' W 080°10'0 0.0
2016-Aug-26 04:33N 26°06' W 080°10'0 0.0
2016-Aug-26 03:33N 26°06' W 080°10'0 0.0
2016-Aug-26 02:33N 26°06' W 080°10'0 0.0
2016-Aug-26 01:33N 26°06' W 080°10'0 0.0
2016-Aug-26 00:33N 26°06' W 080°10'0 0.0
2016-Aug-25 23:09N 26°06' W 080°10'0 0.0
2016-Aug-25 22:27N 26°06' W 080°10'0 0.0
2016-Aug-25 21:24N 26°06' W 080°10'0 0.0
2016-Aug-25 20:27N 26°06' W 080°10'0 0.2
2016-Aug-25 19:32N 26°06' W 080°10'0 0.0
2016-Aug-25 18:32N 26°06' W 080°10'0 0.0
2016-Aug-25 17:32N 26°06' W 080°10'1 1.4
2016-Aug-25 16:33N 26°07' W 080°09'2 2.1
2016-Aug-25 15:31N 26°07' W 080°07'0 0.0
2016-Aug-25 14:22N 26°07' W 080°07'0 0.0
2016-Aug-25 13:33N 26°07' W 080°07'0 0.0
2016-Aug-25 12:33N 26°07' W 080°07'0 0.0
2016-Aug-25 11:33N 26°07' W 080°07'0 0.0
2016-Aug-25 10:33N 26°07' W 080°07'0 0.0
2016-Aug-25 09:33N 26°07' W 080°07'0 0.0
2016-Aug-25 08:33N 26°07' W 080°07'0 0.0
2016-Aug-25 07:33N 26°07' W 080°07'0 0.0
2016-Aug-25 06:33N 26°07' W 080°07'0 0.0
2016-Aug-25 04:33N 26°07' W 080°07'0 0.0
2016-Aug-25 03:33N 26°07' W 080°07'0 0.0
2016-Aug-25 02:33N 26°07' W 080°07'0 0.0
2016-Aug-25 01:33N 26°07' W 080°07'0 0.0
2016-Aug-25 00:33N 26°07' W 080°07'0 0.0
2016-Aug-24 23:33N 26°07' W 080°07'0 0.0
2016-Aug-24 22:33N 26°07' W 080°07'0 0.0
2016-Aug-24 21:33N 26°07' W 080°07'0 0.0
2016-Aug-24 20:33N 26°07' W 080°07'0 0.0
2016-Aug-24 19:33N 26°07' W 080°07'0 0.0
2016-Aug-24 18:33N 26°07' W 080°07'1 0.9
2016-Aug-24 17:33N 26°06' W 080°07'4 3.6
2016-Aug-24 16:33N 26°03' W 080°05'2 2.2
2016-Aug-24 15:33N 26°01' W 080°05'6 5.6
2016-Aug-24 14:27N 26°07' W 080°07'0 0.0
2016-Aug-24 13:27N 26°07' W 080°07'0 0.0
2016-Aug-24 12:30N 26°07' W 080°07'0 0.0
2016-Aug-24 11:30N 26°07' W 080°07'0 0.0
2016-Aug-24 10:30N 26°07' W 080°07'0 0.0
2016-Aug-24 09:30N 26°07' W 080°07'0 0.0
2016-Aug-24 08:33N 26°07' W 080°07'0 0.0
2016-Aug-24 07:33N 26°07' W 080°07'0 0.0
2016-Aug-24 06:33N 26°07' W 080°07'0 0.0
2016-Aug-24 04:33N 26°07' W 080°07'0 0.0
2016-Aug-24 03:33N 26°07' W 080°07'0 0.0
2016-Aug-24 02:24N 26°07' W 080°07'0 0.0
2016-Aug-24 01:27N 26°07' W 080°07'0 0.0
2016-Aug-24 00:27N 26°07' W 080°07'0 0.0
2016-Aug-23 23:27N 26°07' W 080°07'0 0.0
2016-Aug-23 22:24N 26°07' W 080°07'0 0.0
2016-Aug-23 21:30N 26°07' W 080°07'0 0.0
2016-Aug-23 20:30N 26°07' W 080°07'0 0.0
2016-Aug-23 19:33N 26°07' W 080°07'0 0.0
2016-Aug-23 18:33N 26°07' W 080°07'0 0.0
2016-Aug-23 17:33N 26°07' W 080°07'0 0.0
2016-Aug-23 16:33N 26°07' W 080°07'  
Track history (hours):
 
Tides and Currents Weather Stations Pressure Air Temp Water Temp Dewpoint Dewpoint Depression Visibility Wind Speed Wind Dir Waves Ship Positions

Gene Machine

Owner: Gene Machine, Fort Lauderdale, FL. More information available from US FCC via Universal Licensing System and Coast Guard Vessel Documentation Center.

Last reported at 2016-Sep-02 15:33 UTC. Time now 2016-Dec-05 18:38 UTC.
Position N 26°07' W 080°08'.
Warning: this ship's position is months out of date.

Date/timePositionNaut miles runAvg speedWind from/ knotsBaromVisibWave heightAir tempDewpointWater temp
2016-Sep-02 15:33N 26°07' W 080°08'0 0.0
2016-Sep-02 14:33N 26°07' W 080°08'0 0.0
2016-Sep-02 13:33N 26°07' W 080°08'0 0.0
2016-Sep-02 12:33N 26°07' W 080°08'0 0.0
2016-Sep-02 11:24N 26°07' W 080°08'0 0.0
2016-Sep-02 10:24N 26°07' W 080°08'0 0.0
2016-Sep-02 09:27N 26°07' W 080°08'0 0.0
2016-Sep-02 08:27N 26°07' W 080°08'0 0.0
2016-Sep-02 07:27N 26°07' W 080°08'0 0.0
2016-Sep-02 06:30N 26°07' W 080°08'0 0.0
2016-Sep-02 05:30N 26°07' W 080°08'0 0.0
2016-Sep-02 04:30N 26°07' W 080°08'0 0.0
2016-Sep-02 03:33N 26°07' W 080°08'0 0.0
2016-Sep-02 02:33N 26°07' W 080°08'0 0.0
2016-Sep-02 01:33N 26°07' W 080°08'0 0.0
2016-Sep-02 00:33N 26°07' W 080°08'0 0.0
2016-Sep-01 23:33N 26°07' W 080°08'0 0.0
2016-Sep-01 22:33N 26°07' W 080°08'0 0.0
2016-Sep-01 21:33N 26°07' W 080°08'0 0.0
2016-Sep-01 20:24N 26°07' W 080°08'0 0.0
2016-Sep-01 19:27N 26°07' W 080°08'0 0.0
2016-Sep-01 18:27N 26°07' W 080°08'0 0.0
2016-Sep-01 17:27N 26°07' W 080°08'0 0.0
2016-Sep-01 16:27N 26°07' W 080°08'0 0.0
2016-Sep-01 15:30N 26°07' W 080°08'0 0.0
2016-Sep-01 14:30N 26°07' W 080°08'1 0.6
2016-Sep-01 13:33N 26°07' W 080°08'1 1.1
2016-Sep-01 12:28N 26°07' W 080°06'0 0.0
2016-Sep-01 11:31N 26°07' W 080°06'0 0.0
2016-Sep-01 10:31N 26°07' W 080°06'0 0.0
2016-Sep-01 09:28N 26°07' W 080°06'0 0.0
2016-Sep-01 08:19N 26°07' W 080°06'0 0.0
2016-Sep-01 07:31N 26°07' W 080°06'0 0.0
2016-Sep-01 06:31N 26°07' W 080°06'0 0.0
2016-Sep-01 05:31N 26°07' W 080°06'0 0.0
2016-Sep-01 04:22N 26°07' W 080°06'0 0.0
2016-Sep-01 03:25N 26°07' W 080°06'0 0.0
2016-Sep-01 02:25N 26°07' W 080°06'0 0.0
2016-Sep-01 01:25N 26°07' W 080°06'0 0.0
2016-Sep-01 00:28N 26°07' W 080°06'0 0.0
2016-Aug-31 23:28N 26°07' W 080°06'0 0.0
2016-Aug-31 22:28N 26°07' W 080°06'0 0.0
2016-Aug-31 21:31N 26°07' W 080°06'0 0.0
2016-Aug-31 20:31N 26°07' W 080°06'0 0.0
2016-Aug-31 19:31N 26°07' W 080°06'0 0.0
2016-Aug-31 18:31N 26°07' W 080°06'0 0.0
2016-Aug-31 17:31N 26°07' W 080°06'0 0.0
2016-Aug-31 16:31N 26°07' W 080°06'7 6.8
2016-Aug-31 15:33N 26°04' W 080°00'7 6.0
2016-Aug-31 14:29N 26°07' W 080°06'0 0.0
2016-Aug-31 13:29N 26°07' W 080°06'0 0.0
2016-Aug-31 12:32N 26°07' W 080°06'0 0.0
2016-Aug-31 11:32N 26°07' W 080°06'0 0.0
2016-Aug-31 10:32N 26°07' W 080°06'0 0.0
2016-Aug-31 09:32N 26°07' W 080°06'0 0.0
2016-Aug-31 08:32N 26°07' W 080°06'0 0.0
2016-Aug-31 07:32N 26°07' W 080°06'0 0.0
2016-Aug-31 06:23N 26°07' W 080°06'0 0.0
2016-Aug-31 05:23N 26°07' W 080°06'0 0.0
2016-Aug-31 04:26N 26°07' W 080°06'0 0.0
2016-Aug-31 03:26N 26°07' W 080°06'0 0.0
2016-Aug-31 02:26N 26°07' W 080°06'0 0.0
2016-Aug-31 01:29N 26°07' W 080°06'0 0.0
2016-Aug-31 00:29N 26°07' W 080°06'0 0.0
2016-Aug-30 23:29N 26°07' W 080°06'0 0.0
2016-Aug-30 22:32N 26°07' W 080°06'0 0.0
2016-Aug-30 21:32N 26°07' W 080°06'0 0.0
2016-Aug-30 20:32N 26°07' W 080°06'0 0.0
2016-Aug-30 19:29N 26°07' W 080°06'0 0.0
2016-Aug-30 18:32N 26°07' W 080°06'0 0.0
2016-Aug-30 17:20N 26°07' W 080°06'0 0.0
2016-Aug-30 16:32N 26°07' W 080°06'0 0.0
2016-Aug-30 15:23N 26°07' W 080°06'0 0.0
2016-Aug-30 14:23N 26°07' W 080°06'0 0.0
2016-Aug-30 13:26N 26°07' W 080°06'0 0.0
2016-Aug-30 12:26N 26°07' W 080°06'0 0.6
2016-Aug-30 11:33N 26°07' W 080°07'3 2.9
2016-Aug-30 10:33N 26°06' W 080°10'0 0.0
2016-Aug-30 09:33N 26°06' W 080°10'0 0.0
2016-Aug-30 08:33N 26°06' W 080°10'0 0.0
2016-Aug-30 07:33N 26°06' W 080°10'0 0.0
2016-Aug-30 06:33N 26°06' W 080°10'0 0.0
2016-Aug-30 05:33N 26°06' W 080°10'0 0.0
2016-Aug-30 04:33N 26°06' W 080°10'0 0.0
2016-Aug-30 03:21N 26°06' W 080°10'0 0.0
2016-Aug-30 02:27N 26°06' W 080°10'0 0.0
2016-Aug-30 01:27N 26°06' W 080°10'0 0.0
2016-Aug-30 00:27N 26°06' W 080°10'0 0.0
2016-Aug-29 23:30N 26°06' W 080°10'0 0.0
2016-Aug-29 22:30N 26°06' W 080°10'0 0.0
2016-Aug-29 21:30N 26°06' W 080°10'0 0.0
2016-Aug-29 20:33N 26°06' W 080°10'0 0.0
2016-Aug-29 19:33N 26°06' W 080°10'0 0.0
2016-Aug-29 18:33N 26°06' W 080°10'0 0.0
2016-Aug-29 17:33N 26°06' W 080°10'0 0.0
2016-Aug-29 16:33N 26°06' W 080°10'0 0.0
2016-Aug-29 15:33N 26°06' W 080°10'0 0.0
2016-Aug-29 14:33N 26°06' W 080°10'0 0.0
2016-Aug-29 13:24N 26°06' W 080°10'0 0.0
2016-Aug-29 12:27N 26°06' W 080°10'0 0.0
2016-Aug-29 11:27N 26°06' W 080°10'0 0.0
2016-Aug-29 10:27N 26°06' W 080°10'0 0.0
2016-Aug-29 09:30N 26°06' W 080°10'0 0.0
2016-Aug-29 08:30N 26°06' W 080°10'0 0.0
2016-Aug-29 07:30N 26°06' W 080°10'0 0.0
2016-Aug-29 06:33N 26°06' W 080°10'0 0.0
2016-Aug-29 05:33N 26°06' W 080°10'0 0.0
2016-Aug-29 04:33N 26°06' W 080°10'0 0.0
2016-Aug-29 03:33N 26°06' W 080°10'0 0.0
2016-Aug-29 02:33N 26°06' W 080°10'0 0.0
2016-Aug-29 01:33N 26°06' W 080°10'0 0.0
2016-Aug-29 00:33N 26°06' W 080°10'0 0.0
2016-Aug-28 23:24N 26°06' W 080°10'0 0.0
2016-Aug-28 22:24N 26°06' W 080°10'0 0.0
2016-Aug-28 21:27N 26°06' W 080°10'0 0.0
2016-Aug-28 20:27N 26°06' W 080°10'0 0.0
2016-Aug-28 19:27N 26°06' W 080°10'0 0.0
2016-Aug-28 18:30N 26°06' W 080°10'0 0.0
2016-Aug-28 17:30N 26°06' W 080°10'0 0.0
2016-Aug-28 16:33N 26°06' W 080°10'0 0.0
2016-Aug-28 15:33N 26°06' W 080°10'0 0.0
2016-Aug-28 14:33N 26°06' W 080°10'0 0.0
2016-Aug-28 13:33N 26°06' W 080°10'0 0.0
2016-Aug-28 12:33N 26°06' W 080°10'0 0.0
2016-Aug-28 11:33N 26°06' W 080°10'0 0.0
2016-Aug-28 10:33N 26°06' W 080°10'0 0.0
2016-Aug-28 09:33N 26°06' W 080°10'0 0.0
2016-Aug-28 08:24N 26°06' W 080°10'0 0.0
2016-Aug-28 07:27N 26°06' W 080°10'0 0.0
2016-Aug-28 06:27N 26°06' W 080°10'0 0.0
2016-Aug-28 05:27N 26°06' W 080°10'0 0.0
2016-Aug-28 04:30N 26°06' W 080°10'0 0.0
2016-Aug-28 03:30N 26°06' W 080°10'0 0.0
2016-Aug-28 02:30N 26°06' W 080°10'0 0.0
2016-Aug-28 01:33N 26°06' W 080°10'0 0.0
2016-Aug-28 00:33N 26°06' W 080°10'0 0.0
2016-Aug-27 23:33N 26°06' W 080°10'0 0.0
2016-Aug-27 22:33N 26°06' W 080°10'0 0.0
2016-Aug-27 21:33N 26°06' W 080°10'0 0.0
2016-Aug-27 20:33N 26°06' W 080°10'0 0.0
2016-Aug-27 19:24N 26°06' W 080°10'0 0.0
2016-Aug-27 18:21N 26°06' W 080°10'0 0.0
2016-Aug-27 17:27N 26°06' W 080°10'0 0.0
2016-Aug-27 16:27N 26°06' W 080°10'0 0.0
2016-Aug-27 15:27N 26°06' W 080°10'0 0.0
2016-Aug-27 14:30N 26°06' W 080°10'0 0.0
2016-Aug-27 13:30N 26°06' W 080°10'0 0.0
2016-Aug-27 12:30N 26°06' W 080°10'0 0.0
2016-Aug-27 11:33N 26°06' W 080°10'0 0.0
2016-Aug-27 10:33N 26°06' W 080°10'0 0.0
2016-Aug-27 09:33N 26°06' W 080°10'0 0.0
2016-Aug-27 08:33N 26°06' W 080°10'0 0.0
2016-Aug-27 07:33N 26°06' W 080°10'0 0.0
2016-Aug-27 06:18N 26°06' W 080°10'0 0.0
2016-Aug-27 04:24N 26°06' W 080°10'0 0.0
2016-Aug-27 03:24N 26°06' W 080°10'0 0.0
2016-Aug-27 02:27N 26°06' W 080°10'0 0.0
2016-Aug-27 01:27N 26°06' W 080°10'0 0.0
2016-Aug-27 00:30N 26°06' W 080°10'0 0.0
2016-Aug-26 23:30N 26°06' W 080°10'0 0.0
2016-Aug-26 22:30N 26°06' W 080°10'0 0.0
2016-Aug-26 21:33N 26°06' W 080°10'0 0.0
2016-Aug-26 20:33N 26°06' W 080°10'0 0.0
2016-Aug-26 19:33N 26°06' W 080°10'0 0.0
2016-Aug-26 18:33N 26°06' W 080°10'0 0.0
2016-Aug-26 17:33N 26°06' W 080°10'0 0.0
2016-Aug-26 16:33N 26°06' W 080°10'0 0.0
2016-Aug-26 15:33N 26°06' W 080°10'0 0.0
2016-Aug-26 14:24N 26°06' W 080°10'0 0.0
2016-Aug-26 13:24N 26°06' W 080°10'0 0.0
2016-Aug-26 12:27N 26°06' W 080°10'0 0.0
2016-Aug-26 11:27N 26°06' W 080°10'0 0.0
2016-Aug-26 10:27N 26°06' W 080°10'0 0.0
2016-Aug-26 09:30N 26°06' W 080°10'0 0.0
2016-Aug-26 08:30N 26°06' W 080°10'0 0.0
2016-Aug-26 07:30N 26°06' W 080°10'0 0.0
2016-Aug-26 06:33N 26°06' W 080°10'0 0.0
2016-Aug-26 04:33N 26°06' W 080°10'0 0.0
2016-Aug-26 03:33N 26°06' W 080°10'0 0.0
2016-Aug-26 02:33N 26°06' W 080°10'0 0.0
2016-Aug-26 01:33N 26°06' W 080°10'0 0.0
2016-Aug-26 00:33N 26°06' W 080°10'0 0.0
2016-Aug-25 23:09N 26°06' W 080°10'0 0.0
2016-Aug-25 22:27N 26°06' W 080°10'0 0.0
2016-Aug-25 21:24N 26°06' W 080°10'0 0.0
2016-Aug-25 20:27N 26°06' W 080°10'0 0.2
2016-Aug-25 19:32N 26°06' W 080°10'0 0.0
2016-Aug-25 18:32N 26°06' W 080°10'0 0.0
2016-Aug-25 17:32N 26°06' W 080°10'1 1.4
2016-Aug-25 16:33N 26°07' W 080°09'2 2.1
2016-Aug-25 15:31N 26°07' W 080°07'0 0.0
2016-Aug-25 14:22N 26°07' W 080°07'0 0.0
2016-Aug-25 13:33N 26°07' W 080°07'0 0.0
2016-Aug-25 12:33N 26°07' W 080°07'0 0.0
2016-Aug-25 11:33N 26°07' W 080°07'0 0.0
2016-Aug-25 10:33N 26°07' W 080°07'0 0.0
2016-Aug-25 09:33N 26°07' W 080°07'0 0.0
2016-Aug-25 08:33N 26°07' W 080°07'0 0.0
2016-Aug-25 07:33N 26°07' W 080°07'0 0.0
2016-Aug-25 06:33N 26°07' W 080°07'0 0.0
2016-Aug-25 04:33N 26°07' W 080°07'0 0.0
2016-Aug-25 03:33N 26°07' W 080°07'0 0.0
2016-Aug-25 02:33N 26°07' W 080°07'0 0.0
2016-Aug-25 01:33N 26°07' W 080°07'0 0.0
2016-Aug-25 00:33N 26°07' W 080°07'0 0.0
2016-Aug-24 23:33N 26°07' W 080°07'0 0.0
2016-Aug-24 22:33N 26°07' W 080°07'0 0.0
2016-Aug-24 21:33N 26°07' W 080°07'0 0.0
2016-Aug-24 20:33N 26°07' W 080°07'0 0.0
2016-Aug-24 19:33N 26°07' W 080°07'0 0.0
2016-Aug-24 18:33N 26°07' W 080°07'1 0.9
2016-Aug-24 17:33N 26°06' W 080°07'4 3.6
2016-Aug-24 16:33N 26°03' W 080°05'2 2.2
2016-Aug-24 15:33N 26°01' W 080°05'6 5.6
2016-Aug-24 14:27N 26°07' W 080°07'0 0.0
2016-Aug-24 13:27N 26°07' W 080°07'0 0.0
2016-Aug-24 12:30N 26°07' W 080°07'0 0.0
2016-Aug-24 11:30N 26°07' W 080°07'0 0.0
2016-Aug-24 10:30N 26°07' W 080°07'0 0.0
2016-Aug-24 09:30N 26°07' W 080°07'0 0.0
2016-Aug-24 08:33N 26°07' W 080°07'0 0.0
2016-Aug-24 07:33N 26°07' W 080°07'0 0.0
2016-Aug-24 06:33N 26°07' W 080°07'0 0.0
2016-Aug-24 04:33N 26°07' W 080°07'0 0.0
2016-Aug-24 03:33N 26°07' W 080°07'0 0.0
2016-Aug-24 02:24N 26°07' W 080°07'0 0.0
2016-Aug-24 01:27N 26°07' W 080°07'0 0.0
2016-Aug-24 00:27N 26°07' W 080°07'0 0.0
2016-Aug-23 23:27N 26°07' W 080°07'0 0.0
2016-Aug-23 22:24N 26°07' W 080°07'0 0.0
2016-Aug-23 21:30N 26°07' W 080°07'0 0.0
2016-Aug-23 20:30N 26°07' W 080°07'0 0.0
2016-Aug-23 19:33N 26°07' W 080°07'0 0.0
2016-Aug-23 18:33N 26°07' W 080°07'0 0.0
2016-Aug-23 17:33N 26°07' W 080°07'0 0.0
2016-Aug-23 16:33N 26°07' W 080°07'  

Dump ship's entire track history